Temp: 9.2°C   Baro: 994.5mb
  Wind: 2.0mph   Dir: SW (226°)
  Rain: 0.0mm (0.0mm/hr)
  Solar: 0W/m2  Hum: 86%
 
Bath Spa Weather Station Historical Data
Daily Summary for September 19, 2020 Units:  Metric    English   Both
Daily Weekly Monthly Yearly Custom
  High: Low: Average:
Temperature: 23.2 °C 12.1 °C 16.8 °C
Dew Point: 14.8 °C 9.7 °C 12.4 °C
Humidity: 88% 52.6% 74%
Wind Speed: 20km/h 0.8km/h 8.2km/h
Wind Gust: 41.8km/h - -
Wind- - ENE
Pressure: 1019.5 hPa 1014.8 hPa -
Precipitation: 0 mm    
Historical Graphs
 
 
Tabular Data for September 19, 2020
Time Temperature Dew Point Pressure Wind Wind Speed Wind Gust Humidity Rainfall Rate (Hourly) solar
00:04 13.7 °C 9.9 °C 1019.5 hPa ENE 5 km/h 24.1 km/h 76% 0 mm 0 W/m2
00:09 13.6 °C 9.9 °C 1019.5 hPa East 9.3 km/h 19.3 km/h 76% 0 mm 0 W/m2
00:14 13.6 °C 9.9 °C 1019.5 hPa East 8.7 km/h 16.1 km/h 76% 0 mm 0 W/m2
00:19 13.6 °C 9.9 °C 1019.5 hPa East 9 km/h 14.5 km/h 76% 0 mm 0 W/m2
00:24 13.5 °C 9.8 °C 1019.5 hPa East 6 km/h 14.5 km/h 76% 0 mm 0 W/m2
00:29 13.4 °C 9.7 °C 1019.5 hPa NE 4.8 km/h 17.7 km/h 76% 0 mm 0 W/m2
00:34 13.4 °C 9.7 °C 1019.5 hPa ENE 8 km/h 19.3 km/h 76% 0 mm 0 W/m2
00:39 13.4 °C 9.7 °C 1019.5 hPa East 8.2 km/h 30.6 km/h 76% 0 mm 0 W/m2
00:44 13.3 °C 9.7 °C 1019.2 hPa East 8 km/h 16.1 km/h 76.6% 0 mm 0 W/m2
00:49 13.3 °C 9.8 °C 1019.2 hPa ENE 6.4 km/h 19.3 km/h 77% 0 mm 0 W/m2
00:54 13.2 °C 9.8 °C 1019.2 hPa ENE 8.9 km/h 20.9 km/h 77.4% 0 mm 0 W/m2
00:58 13.2 °C 9.9 °C 1019.2 hPa East 8.4 km/h 14.5 km/h 78% 0 mm 0 W/m2
01:04 13.1 °C 9.8 °C 1019.2 hPa ENE 3.2 km/h 11.3 km/h 78% 0 mm 0 W/m2
01:09 13.1 °C 9.9 °C 1019.2 hPa ESE 3.9 km/h 14.5 km/h 78.4% 0 mm 0 W/m2
01:14 13.1 °C 10 °C 1019.2 hPa East 6.6 km/h 16.1 km/h 79% 0 mm 0 W/m2
01:19 13 °C 9.9 °C 1019.2 hPa ENE 3.9 km/h 19.3 km/h 79% 0 mm 0 W/m2
01:24 12.9 °C 9.9 °C 1019.2 hPa ESE 5 km/h 11.3 km/h 79.6% 0 mm 0 W/m2
01:29 12.9 °C 10 °C 1019.2 hPa East 4.2 km/h 19.3 km/h 80% 0 mm 0 W/m2
01:34 12.9 °C 10 °C 1019.2 hPa ESE 4.5 km/h 14.5 km/h 80% 0 mm 0 W/m2
01:39 12.8 °C 9.9 °C 1019.2 hPa ENE 3.2 km/h 9.7 km/h 80% 0 mm 0 W/m2
01:44 12.8 °C 9.9 °C 1019.2 hPa ENE 2.6 km/h 11.3 km/h 80% 0 mm 0 W/m2
01:49 12.8 °C 10.1 °C 1019.2 hPa NNE 2.7 km/h 11.3 km/h 81% 0 mm 0 W/m2
01:54 12.7 °C 10.1 °C 1019.2 hPa SE 2.6 km/h 12.9 km/h 81% 0 mm 0 W/m2
01:59 12.7 °C 10 °C 1019.2 hPa ENE 1.6 km/h 8 km/h 81% 0 mm 0 W/m2
02:04 12.7 °C 10 °C 1018.8 hPa East 3.2 km/h 11.3 km/h 81% 0 mm 0 W/m2
02:09 12.6 °C 9.9 °C 1018.8 hPa NNE 4.7 km/h 12.9 km/h 81% 0 mm 0 W/m2
02:14 12.6 °C 10.1 °C 1018.8 hPa ESE 5.3 km/h 12.9 km/h 82% 0 mm 0 W/m2
02:19 12.6 °C 10.1 °C 1018.8 hPa East 8.7 km/h 17.7 km/h 82% 0 mm 0 W/m2
02:24 12.6 °C 10.1 °C 1018.8 hPa ENE 4.3 km/h 17.7 km/h 82% 0 mm 0 W/m2
02:29 12.6 °C 10.1 °C 1018.8 hPa ESE 6.3 km/h 16.1 km/h 82% 0 mm 0 W/m2
02:34 12.6 °C 10.1 °C 1018.8 hPa ENE 2.9 km/h 16.1 km/h 82% 0 mm 0 W/m2
02:39 12.6 °C 10.2 °C 1018.8 hPa ENE 5.3 km/h 16.1 km/h 82.6% 0 mm 0 W/m2
02:44 12.6 °C 10.2 °C 1018.8 hPa SE 3.2 km/h 12.9 km/h 83% 0 mm 0 W/m2
02:49 12.4 °C 10.1 °C 1018.8 hPa SW 2.9 km/h 6.4 km/h 83% 0 mm 0 W/m2
02:54 12.4 °C 10.1 °C 1018.5 hPa ENE 3.4 km/h 14.5 km/h 83% 0 mm 0 W/m2
02:59 12.4 °C 10.1 °C 1018.5 hPa ENE 7.1 km/h 14.5 km/h 83% 0 mm 0 W/m2
03:04 12.4 °C 10.1 °C 1018.5 hPa ESE 1.9 km/h 14.5 km/h 83% 0 mm 0 W/m2
03:09 12.3 °C 10.2 °C 1018.5 hPa NW 4.2 km/h 11.3 km/h 83.6% 0 mm 0 W/m2
03:14 12.3 °C 10.2 °C 1018.5 hPa ESE 0.8 km/h 11.3 km/h 84% 0 mm 0 W/m2
03:19 12.3 °C 10.2 °C 1018.5 hPa ESE 6 km/h 11.3 km/h 84% 0 mm 0 W/m2
03:24 12.3 °C 10.2 °C 1018.2 hPa East 4.5 km/h 14.5 km/h 84% 0 mm 0 W/m2
03:29 12.3 °C 10.2 °C 1018.2 hPa NNE 5.8 km/h 14.5 km/h 84% 0 mm 0 W/m2
03:34 12.3 °C 10.2 °C 1018.2 hPa NE 2.3 km/h 19.3 km/h 84% 0 mm 0 W/m2
03:39 12.3 °C 10.3 °C 1018.2 hPa ENE 5.1 km/h 12.9 km/h 84.8% 0 mm 0 W/m2
03:44 12.3 °C 10.3 °C 1018.2 hPa NE 4.2 km/h 14.5 km/h 85% 0 mm 0 W/m2
03:49 12.3 °C 10.3 °C 1018.2 hPa East 5.1 km/h 14.5 km/h 85% 0 mm 0 W/m2
03:54 12.3 °C 10.3 °C 1018.2 hPa ENE 4.7 km/h 16.1 km/h 85% 0 mm 0 W/m2
03:59 12.3 °C 10.3 °C 1018.2 hPa NE 5.5 km/h 19.3 km/h 85% 0 mm 0 W/m2
04:04 12.3 °C 10.3 °C 1018.2 hPa NE 9 km/h 17.7 km/h 85% 0 mm 0 W/m2
04:09 12.3 °C 10.3 °C 1017.8 hPa NE 4.8 km/h 16.1 km/h 85.2% 0 mm 0 W/m2
04:14 12.3 °C 10.5 °C 1017.8 hPa ENE 5.3 km/h 14.5 km/h 86% 0 mm 0 W/m2
04:19 12.3 °C 10.5 °C 1017.8 hPa ENE 8.7 km/h 24.1 km/h 86% 0 mm 0 W/m2
04:24 12.3 °C 10.5 °C 1017.8 hPa NE 6.6 km/h 16.1 km/h 86% 0 mm 0 W/m2
04:29 12.3 °C 10.5 °C 1017.8 hPa NE 8.7 km/h 20.9 km/h 86% 0 mm 0 W/m2
04:33 12.3 °C 10.5 °C 1017.8 hPa NNE 4 km/h 16.1 km/h 86% 0 mm 0 W/m2
04:39 12.3 °C 10.5 °C 1017.8 hPa NE 2.9 km/h 16.1 km/h 86% 0 mm 0 W/m2
04:44 12.3 °C 10.5 °C 1017.8 hPa NE 5 km/h 16.1 km/h 86% 0 mm 0 W/m2
04:49 12.3 °C 10.5 °C 1017.8 hPa East 5.5 km/h 25.7 km/h 86% 0 mm 0 W/m2
04:54 12.3 °C 10.5 °C 1017.8 hPa ENE 9.5 km/h 17.7 km/h 86% 0 mm 0 W/m2
04:59 12.3 °C 10.5 °C 1017.8 hPa NE 7.1 km/h 17.7 km/h 86% 0 mm 0 W/m2
05:04 12.3 °C 10.5 °C 1017.8 hPa NE 6.6 km/h 14.5 km/h 86% 0 mm 0 W/m2
05:09 12.2 °C 10.4 °C 1017.8 hPa NE 2.9 km/h 14.5 km/h 86% 0 mm 0 W/m2
05:14 12.2 °C 10.4 °C 1017.8 hPa NNE 4.5 km/h 14.5 km/h 86% 0 mm 0 W/m2
05:19 12.2 °C 10.4 °C 1017.5 hPa NE 5 km/h 22.5 km/h 86% 0 mm 0 W/m2
05:24 12.2 °C 10.4 °C 1017.5 hPa NE 7.1 km/h 17.7 km/h 86% 0 mm 0 W/m2
05:29 12.2 °C 10.4 °C 1017.8 hPa NE 7.4 km/h 19.3 km/h 86.2% 0 mm 0 W/m2
05:34 12.2 °C 10.6 °C 1017.5 hPa NNE 8 km/h 19.3 km/h 87% 0 mm 0 W/m2
05:39 12.1 °C 10.5 °C 1017.5 hPa NE 8.2 km/h 17.7 km/h 87% 0 mm 0 W/m2
05:44 12.1 °C 10.5 °C 1017.8 hPa NE 10.1 km/h 19.3 km/h 87% 0 mm 0 W/m2
05:49 12.1 °C 10.5 °C 1017.8 hPa ENE 7.7 km/h 20.9 km/h 87% 0 mm 0 W/m2
05:54 12.1 °C 10.5 °C 1017.8 hPa ENE 6 km/h 17.7 km/h 87% 0 mm 0 W/m2
05:59 12.1 °C 10.5 °C 1017.8 hPa NNE 7.1 km/h 20.9 km/h 87% 0 mm 0 W/m2
06:04 12.1 °C 10.5 °C 1017.8 hPa NE 7.1 km/h 25.7 km/h 87% 0 mm 0 W/m2
06:09 12.1 °C 10.5 °C 1017.8 hPa NNE 3.2 km/h 12.9 km/h 87% 0 mm 0 W/m2
06:14 12.1 °C 10.5 °C 1017.8 hPa ENE 5.6 km/h 14.5 km/h 87% 0 mm 0 W/m2
06:18 12.1 °C 10.7 °C 1017.8 hPa NE 8.5 km/h 19.3 km/h 87.8% 0 mm 0 W/m2
06:24 12.1 °C 10.7 °C 1017.8 hPa NE 8.4 km/h 17.7 km/h 88% 0 mm 0 W/m2
06:29 12.1 °C 10.7 °C 1017.8 hPa ENE 5.3 km/h 17.7 km/h 88% 0 mm 0 W/m2
06:34 12.1 °C 10.7 °C 1017.8 hPa NE 9 km/h 17.7 km/h 88% 0 mm 0 W/m2
06:39 12.2 °C 10.8 °C 1017.8 hPa East 4.7 km/h 16.1 km/h 88% 0 mm 0 W/m2
06:44 12.2 °C 10.7 °C 1017.8 hPa NE 8 km/h 14.5 km/h 88% 0 mm 0 W/m2
06:49 12.2 °C 10.8 °C 1017.8 hPa NE 8.2 km/h 20.9 km/h 88% 0 mm 5 W/m2
06:53 12.2 °C 10.8 °C 1017.8 hPa ENE 5.6 km/h 20.9 km/h 88% 0 mm 7 W/m2
06:59 12.2 °C 10.8 °C 1017.8 hPa ENE 6 km/h 20.9 km/h 88% 0 mm 7 W/m2
07:04 12.2 °C 10.8 °C 1017.8 hPa ENE 6.4 km/h 16.1 km/h 88% 0 mm 11 W/m2
07:09 12.2 °C 10.8 °C 1017.8 hPa NE 9.5 km/h 25.7 km/h 88% 0 mm 12 W/m2
07:14 12.3 °C 10.9 °C 1017.8 hPa NE 8 km/h 16.1 km/h 88% 0 mm 18 W/m2
07:19 12.3 °C 10.9 °C 1017.8 hPa NE 6.3 km/h 14.5 km/h 88% 0 mm 25 W/m2
07:24 12.3 °C 10.9 °C 1017.8 hPa NNE 5.6 km/h 20.9 km/h 88% 0 mm 30 W/m2
07:29 12.4 °C 11 °C 1017.8 hPa NE 8.5 km/h 24.1 km/h 88% 0 mm 32 W/m2
07:34 12.4 °C 11 °C 1017.8 hPa NE 11.6 km/h 24.1 km/h 88% 0 mm 32 W/m2
07:39 12.4 °C 11 °C 1017.8 hPa ENE 8.9 km/h 20.9 km/h 88% 0 mm 33 W/m2
07:44 12.5 °C 11.1 °C 1017.8 hPa ENE 11.6 km/h 25.7 km/h 88% 0 mm 33 W/m2
07:49 12.6 °C 11.2 °C 1017.8 hPa NE 7.7 km/h 22.5 km/h 88% 0 mm 33 W/m2
07:54 12.6 °C 11.2 °C 1017.8 hPa NNE 7.9 km/h 24.1 km/h 88% 0 mm 33 W/m2
07:59 12.6 °C 11.2 °C 1017.8 hPa NE 8.5 km/h 24.1 km/h 88% 0 mm 37 W/m2
08:04 12.6 °C 11.1 °C 1017.8 hPa NNE 8.4 km/h 16.1 km/h 87.2% 0 mm 40 W/m2
08:09 12.6 °C 11 °C 1017.8 hPa NE 8.2 km/h 25.7 km/h 87% 0 mm 46 W/m2
08:14 12.6 °C 11 °C 1017.8 hPa NE 7.2 km/h 22.5 km/h 87% 0 mm 56 W/m2
08:19 12.7 °C 11.1 °C 1017.8 hPa NE 7.4 km/h 16.1 km/h 87% 0 mm 69 W/m2
08:24 12.7 °C 11.1 °C 1017.8 hPa NNE 5 km/h 17.7 km/h 87% 0 mm 81 W/m2
08:29 12.7 °C 11.2 °C 1017.8 hPa NNE 9.2 km/h 17.7 km/h 87% 0 mm 91 W/m2
08:34 12.8 °C 11.2 °C 1017.8 hPa ENE 7.4 km/h 17.7 km/h 87% 0 mm 102 W/m2
08:39 12.8 °C 11.2 °C 1017.8 hPa ENE 4.5 km/h 17.7 km/h 87% 0 mm 111 W/m2
08:44 12.9 °C 11.3 °C 1017.8 hPa ENE 8 km/h 17.7 km/h 87% 0 mm 116 W/m2
08:49 13.1 °C 11.4 °C 1017.8 hPa ENE 4.7 km/h 17.7 km/h 87% 0 mm 127 W/m2
08:54 13.2 °C 11.6 °C 1017.8 hPa NE 4 km/h 16.1 km/h 87% 0 mm 139 W/m2
08:59 13.2 °C 11.7 °C 1017.8 hPa ENE 5 km/h 17.7 km/h 87% 0 mm 153 W/m2
09:04 13.4 °C 11.6 °C 1017.8 hPa East 9.7 km/h 17.7 km/h 86.2% 0 mm 185 W/m2
09:09 13.6 °C 11.8 °C 1017.8 hPa ENE 7.9 km/h 14.5 km/h 86% 0 mm 213 W/m2
09:14 13.8 °C 11.8 °C 1017.8 hPa NNE 4.2 km/h 14.5 km/h 85% 0 mm 225 W/m2
09:19 14 °C 11.9 °C 1017.8 hPa NNE 9 km/h 24.1 km/h 84.4% 0 mm 185 W/m2
09:24 14.1 °C 11.9 °C 1017.8 hPa ENE 5.1 km/h 17.7 km/h 84% 0 mm 190 W/m2
09:29 14.2 °C 11.9 °C 1017.8 hPa NE 3.5 km/h 11.3 km/h 83.4% 0 mm 199 W/m2
09:34 14.3 °C 11.9 °C 1017.8 hPa NE 9.3 km/h 17.7 km/h 83% 0 mm 225 W/m2
09:39 14.5 °C 12 °C 1017.8 hPa NNE 5.5 km/h 16.1 km/h 82% 0 mm 250 W/m2
09:43 14.8 °C 12.1 °C 1017.8 hPa North 8 km/h 16.1 km/h 81.8% 0 mm 244 W/m2
09:49 14.8 °C 12.2 °C 1017.8 hPa NNE 3.2 km/h 16.1 km/h 81% 0 mm 239 W/m2
09:54 15 °C 12.2 °C 1017.8 hPa NNE 8.4 km/h 22.5 km/h 80.2% 0 mm 230 W/m2
09:59 15.2 °C 12.2 °C 1017.8 hPa ENE 9 km/h 22.5 km/h 79.6% 0 mm 255 W/m2
10:04 15.4 °C 12.3 °C 1017.8 hPa NE 8.5 km/h 19.3 km/h 78.8% 0 mm 313 W/m2
10:09 15.8 °C 12.4 °C 1017.8 hPa ENE 7.2 km/h 16.1 km/h 77.8% 0 mm 262 W/m2
10:14 15.9 °C 12.3 °C 1017.8 hPa NE 6.3 km/h 16.1 km/h 76.6% 0 mm 285 W/m2
10:19 16.1 °C 12.4 °C 1017.5 hPa NE 6 km/h 14.5 km/h 76.2% 0 mm 299 W/m2
10:24 16.2 °C 12.3 °C 1017.5 hPa ENE 10.5 km/h 22.5 km/h 75.4% 0 mm 322 W/m2
10:29 16.3 °C 12.3 °C 1017.5 hPa NNE 6.1 km/h 20.9 km/h 75% 0 mm 396 W/m2
10:34 16.7 °C 12.6 °C 1017.5 hPa ENE 7.2 km/h 17.7 km/h 74.5% 0 mm 313 W/m2
10:39 16.8 °C 12.6 °C 1017.5 hPa NE 6.9 km/h 17.7 km/h 73.6% 0 mm 341 W/m2
10:44 16.9 °C 12.4 °C 1017.2 hPa NE 10.8 km/h 27.4 km/h 72.6% 0 mm 313 W/m2
10:49 16.9 °C 12.4 °C 1017.2 hPa NNE 14.8 km/h 27.4 km/h 72.8% 0 mm 330 W/m2
10:54 16.9 °C 12.5 °C 1017.2 hPa NE 5.8 km/h 27.4 km/h 72.8% 0 mm 390 W/m2
10:59 17.3 °C 12.8 °C 1017.2 hPa NE 9.2 km/h 19.3 km/h 72.6% 0 mm 431 W/m2
11:04 17.6 °C 12.8 °C 1017.2 hPa ENE 13.5 km/h 22.5 km/h 71.2% 0 mm 478 W/m2
11:09 17.8 °C 12.8 °C 1017.2 hPa ENE 10.3 km/h 20.9 km/h 70.4% 0 mm 527 W/m2
11:14 18.2 °C 13.1 °C 1016.8 hPa ENE 5.1 km/h 16.1 km/h 69.8% 0 mm 533 W/m2
11:19 18.7 °C 13.2 °C 1016.8 hPa ENE 12.2 km/h 22.5 km/h 68.6% 0 mm 540 W/m2
11:24 18.7 °C 13.2 °C 1016.8 hPa ENE 6.4 km/h 19.3 km/h 68.2% 0 mm 555 W/m2
11:29 19.1 °C 13.3 °C 1016.8 hPa ENE 12.2 km/h 27.4 km/h 67.2% 0 mm 575 W/m2
11:34 19.1 °C 13.2 °C 1016.8 hPa ENE 10.1 km/h 30.6 km/h 66.6% 0 mm 592 W/m2
11:39 19.2 °C 13.4 °C 1016.8 hPa NNE 12.9 km/h 25.7 km/h 67% 0 mm 608 W/m2
11:44 19.7 °C 14.3 °C 1016.8 hPa NE 8.5 km/h 24.1 km/h 69.2% 0 mm 615 W/m2
11:49 19.8 °C 14.4 °C 1016.8 hPa ENE 7.2 km/h 24.1 km/h 69% 0 mm 547 W/m2
11:54 20 °C 14.6 °C 1016.8 hPa East 6.6 km/h 22.5 km/h 68.8% 0 mm 517 W/m2
11:59 20.3 °C 14.6 °C 1016.5 hPa ENE 13.2 km/h 24.1 km/h 67.5% 0 mm 508 W/m2
12:04 20.1 °C 14.4 °C 1016.5 hPa ENE 10.5 km/h 24.1 km/h 67.8% 0 mm 480 W/m2
12:09 19.8 °C 14.3 °C 1016.5 hPa ENE 12.7 km/h 24.1 km/h 68.2% 0 mm 529 W/m2
12:14 20 °C 14.3 °C 1016.5 hPa ENE 13.2 km/h 22.5 km/h 67.8% 0 mm 517 W/m2
12:19 20.2 °C 14.4 °C 1016.5 hPa East 10 km/h 29 km/h 67% 0 mm 403 W/m2
12:24 20.1 °C 14.3 °C 1016.5 hPa ENE 14.3 km/h 29 km/h 67.4% 0 mm 573 W/m2
12:29 20.6 °C 14.6 °C 1016.5 hPa ENE 11.3 km/h 25.7 km/h 66.6% 0 mm 626 W/m2
12:34 20.8 °C 14.6 °C 1016.5 hPa East 10.5 km/h 25.7 km/h 65.3% 0 mm 587 W/m2
12:39 20.8 °C 14.5 °C 1016.5 hPa NNE 15.8 km/h 25.7 km/h 65.2% 0 mm 504 W/m2
12:44 20.7 °C 14.6 °C 1016.5 hPa ENE 14.5 km/h 22.5 km/h 66% 0 mm 482 W/m2
12:49 20.4 °C 14.3 °C 1016.5 hPa NE 13 km/h 30.6 km/h 65.8% 0 mm 468 W/m2
12:54 20.4 °C 14.4 °C 1016.5 hPa ENE 13.8 km/h 27.4 km/h 66.4% 0 mm 613 W/m2
12:59 20.8 °C 14.7 °C 1016.5 hPa NE 15.3 km/h 25.7 km/h 66.3% 0 mm 580 W/m2
13:04 21 °C 14.6 °C 1016.1 hPa ENE 11.9 km/h 24.1 km/h 65% 0 mm 559 W/m2
13:09 21.1 °C 14.6 °C 1016.1 hPa ENE 14.3 km/h 27.4 km/h 64.4% 0 mm 608 W/m2
13:14 21.3 °C 14.6 °C 1016.1 hPa NNE 11.3 km/h 32.2 km/h 63.6% 0 mm 621 W/m2
13:19 21.4 °C 14.6 °C 1016.1 hPa ENE 7.7 km/h 30.6 km/h 62.8% 0 mm 599 W/m2
13:24 22.1 °C 14.8 °C 1016.1 hPa NE 9 km/h 25.7 km/h 61.6% 0 mm 657 W/m2
13:29 22.5 °C 14.8 °C 1015.8 hPa ENE 8 km/h 25.7 km/h 60% 0 mm 673 W/m2
13:34 22.3 °C 14.5 °C 1015.8 hPa NE 14.8 km/h 30.6 km/h 59.6% 0 mm 666 W/m2
13:39 22.1 °C 14.4 °C 1015.8 hPa NE 11.6 km/h 29 km/h 60.4% 0 mm 624 W/m2
13:44 22 °C 14.3 °C 1015.8 hPa ENE 16.9 km/h 29 km/h 60.3% 0 mm 608 W/m2
13:49 21.8 °C 14.4 °C 1015.8 hPa NE 14.8 km/h 33.8 km/h 61% 0 mm 603 W/m2
13:54 21.9 °C 14.3 °C 1015.5 hPa NE 18 km/h 38.6 km/h 60.2% 0 mm 594 W/m2
13:59 22.3 °C 14.4 °C 1015.5 hPa ENE 9.7 km/h 33.8 km/h 59.2% 0 mm 589 W/m2
14:04 22.6 °C 14.4 °C 1015.5 hPa NE 14.2 km/h 29 km/h 58.4% 0 mm 503 W/m2
14:09 22.7 °C 14.7 °C 1015.5 hPa NE 9.7 km/h 24.1 km/h 58.6% 0 mm 471 W/m2
14:14 22.7 °C 14.7 °C 1015.5 hPa ENE 7.2 km/h 17.7 km/h 58.6% 0 mm 439 W/m2
14:19 22.7 °C 14.6 °C 1015.5 hPa ENE 12.9 km/h 25.7 km/h 58.2% 0 mm 452 W/m2
14:24 22.3 °C 14.3 °C 1015.5 hPa NE 16.4 km/h 35.4 km/h 58.6% 0 mm 413 W/m2
14:29 22.2 °C 14.2 °C 1015.5 hPa East 13.5 km/h 32.2 km/h 58.4% 0 mm 404 W/m2
14:34 22.2 °C 14.1 °C 1015.1 hPa ENE 13.7 km/h 33.8 km/h 58.3% 0 mm 406 W/m2
14:39 22.2 °C 14.1 °C 1015.5 hPa ENE 11.3 km/h 29 km/h 58% 0 mm 464 W/m2
14:44 22.3 °C 13.9 °C 1015.1 hPa ENE 13.2 km/h 29 km/h 57.2% 0 mm 466 W/m2
14:49 22.7 °C 14.3 °C 1015.1 hPa NE 8.7 km/h 33.8 km/h 57.4% 0 mm 480 W/m2
14:54 22.7 °C 13.8 °C 1015.1 hPa ENE 10.3 km/h 33.8 km/h 56% 0 mm 480 W/m2
14:59 22.7 °C 14 °C 1015.1 hPa ENE 11.9 km/h 24.1 km/h 56.4% 0 mm 454 W/m2
15:04 22.5 °C 14.1 °C 1015.1 hPa NE 14.2 km/h 29 km/h 57.2% 0 mm 462 W/m2
15:08 22.4 °C 14.1 °C 1015.1 hPa NNE 10.5 km/h 24.1 km/h 57.5% 0 mm 436 W/m2
15:14 22.6 °C 14.3 °C 1015.1 hPa NNE 7.9 km/h 19.3 km/h 57.8% 0 mm 448 W/m2
15:19 22.9 °C 14.2 °C 1015.1 hPa NE 11.6 km/h 25.7 km/h 56% 0 mm 469 W/m2
15:24 23.1 °C 14 °C 1015.1 hPa ENE 6.8 km/h 27.4 km/h 55% 0 mm 454 W/m2
15:29 23.2 °C 14.3 °C 1015.1 hPa NE 8.2 km/h 19.3 km/h 55.6% 0 mm 504 W/m2
15:34 23.2 °C 14.3 °C 1015.1 hPa ENE 14.2 km/h 41.8 km/h 55.6% 0 mm 499 W/m2
15:39 23.1 °C 13.4 °C 1015.1 hPa East 20 km/h 41.8 km/h 52.6% 0 mm 496 W/m2
15:43 22.9 °C 13.4 °C 1015.1 hPa ENE 10.8 km/h 33.8 km/h 53.5% 0 mm 279 W/m2
15:49 22.7 °C 13.5 °C 1015.1 hPa East 13.2 km/h 25.7 km/h 54.4% 0 mm 341 W/m2
15:54 22.7 °C 13.7 °C 1015.1 hPa ENE 9.7 km/h 27.4 km/h 55% 0 mm 315 W/m2
15:59 22.8 °C 13.8 °C 1015.1 hPa NE 6.9 km/h 17.7 km/h 55% 0 mm 341 W/m2
16:04 22.8 °C 13.9 °C 1015.1 hPa NE 12.6 km/h 17.7 km/h 55.4% 0 mm 345 W/m2
16:09 22.8 °C 13.9 °C 1015.1 hPa ENE 13.2 km/h 19.3 km/h 55.8% 0 mm 475 W/m2
16:13 22.9 °C 13.8 °C 1014.8 hPa East 8.9 km/h 27.4 km/h 54.8% 0 mm 459 W/m2
16:19 23.1 °C 13.7 °C 1015.1 hPa East 7.9 km/h 27.4 km/h 54.2% 0 mm 292 W/m2
16:24 22.8 °C 13.4 °C 1015.1 hPa ENE 9.7 km/h 30.6 km/h 53.8% 0 mm 181 W/m2
16:29 22.6 °C 13.2 °C 1015.1 hPa NE 8.7 km/h 29 km/h 54% 0 mm 279 W/m2
16:34 22.4 °C 13.3 °C 1015.1 hPa ENE 12.2 km/h 38.6 km/h 54.4% 0 mm 403 W/m2
16:39 22.7 °C 13.4 °C 1015.1 hPa ENE 9.7 km/h 24.1 km/h 54.2% 0 mm 388 W/m2
16:44 22.7 °C 13.3 °C 1015.1 hPa NE 10.6 km/h 29 km/h 53.6% 0 mm 315 W/m2
16:49 22.6 °C 13.2 °C 1015.1 hPa NE 12.4 km/h 24.1 km/h 53.8% 0 mm 287 W/m2
16:54 22.3 °C 13.1 °C 1015.1 hPa NE 14.5 km/h 24.1 km/h 54% 0 mm 283 W/m2
16:59 22.3 °C 13.2 °C 1015.1 hPa NE 13.8 km/h 29 km/h 54.6% 0 mm 258 W/m2
17:04 22.3 °C 13.1 °C 1015.1 hPa ENE 12.9 km/h 27.4 km/h 54.4% 0 mm 260 W/m2
17:09 22.3 °C 13.2 °C 1015.1 hPa NE 10.6 km/h 27.4 km/h 54.8% 0 mm 248 W/m2
17:14 22.3 °C 13.3 °C 1015.1 hPa NE 10.8 km/h 22.5 km/h 55% 0 mm 239 W/m2
17:19 22.3 °C 13.2 °C 1015.1 hPa NE 9 km/h 24.1 km/h 54.8% 0 mm 229 W/m2
17:24 22.3 °C 13.2 °C 1015.1 hPa NE 13.5 km/h 25.7 km/h 54.8% 0 mm 216 W/m2
17:29 22.2 °C 13.2 °C 1015.1 hPa ENE 10.9 km/h 25.7 km/h 55% 0 mm 195 W/m2
17:34 22.1 °C 13.2 °C 1015.1 hPa ENE 10.8 km/h 24.1 km/h 55.3% 0 mm 181 W/m2
17:39 22.1 °C 13.2 °C 1015.1 hPa ENE 9 km/h 25.7 km/h 55.2% 0 mm 174 W/m2
17:44 22.2 °C 13.2 °C 1015.1 hPa NE 8 km/h 27.4 km/h 55% 0 mm 160 W/m2
17:49 22.1 °C 13.1 °C 1015.1 hPa ENE 9 km/h 27.4 km/h 55% 0 mm 141 W/m2
17:54 21.9 °C 13.3 °C 1015.1 hPa ENE 5.6 km/h 16.1 km/h 56% 0 mm 72 W/m2
17:59 21.8 °C 13.3 °C 1015.1 hPa NE 4.8 km/h 14.5 km/h 56.8% 0 mm 63 W/m2
18:04 21.6 °C 13.5 °C 1015.1 hPa East 7.6 km/h 16.1 km/h 58.2% 0 mm 62 W/m2
18:09 21.3 °C 13.8 °C 1015.5 hPa NE 7.9 km/h 20.9 km/h 60.6% 0 mm 56 W/m2
18:14 21.1 °C 14.1 °C 1015.5 hPa NE 7.1 km/h 20.9 km/h 62.2% 0 mm 58 W/m2
18:19 20.9 °C 14.2 °C 1015.5 hPa ENE 9.2 km/h 32.2 km/h 63.5% 0 mm 60 W/m2
18:24 20.8 °C 14.4 °C 1015.5 hPa NE 6.8 km/h 16.1 km/h 64.6% 0 mm 53 W/m2
18:29 20.7 °C 14.4 °C 1015.8 hPa NE 8 km/h 19.3 km/h 65% 0 mm 42 W/m2
18:34 20.5 °C 14.4 °C 1015.8 hPa NE 7.2 km/h 27.4 km/h 66.2% 0 mm 37 W/m2
18:39 20.4 °C 14.5 °C 1015.8 hPa ENE 9.3 km/h 20.9 km/h 67% 0 mm 32 W/m2
18:44 20.3 °C 14.4 °C 1015.8 hPa NE 5.5 km/h 16.1 km/h 67% 0 mm 26 W/m2
18:49 20.2 °C 14.6 °C 1015.8 hPa NE 7.9 km/h 12.9 km/h 67.8% 0 mm 23 W/m2
18:54 20.1 °C 14.5 °C 1015.8 hPa ENE 7.1 km/h 22.5 km/h 68.2% 0 mm 19 W/m2
18:59 19.8 °C 14.4 °C 1015.8 hPa ENE 10.6 km/h 22.5 km/h 69% 0 mm 14 W/m2
19:04 19.8 °C 14.4 °C 1015.8 hPa NE 7.9 km/h 17.7 km/h 69% 0 mm 11 W/m2
19:09 19.7 °C 14.6 °C 1015.8 hPa NE 4.7 km/h 22.5 km/h 70% 0 mm 7 W/m2
19:14 19.7 °C 14.6 °C 1015.8 hPa NE 6.3 km/h 16.1 km/h 70% 0 mm 0 W/m2
19:19 19.6 °C 14.4 °C 1015.8 hPa NE 5.5 km/h 14.5 km/h 70% 0 mm 0 W/m2
19:24 19.4 °C 14.4 °C 1015.8 hPa NE 8.9 km/h 22.5 km/h 70.5% 0 mm 0 W/m2
19:29 19.3 °C 14.4 °C 1015.8 hPa NE 8.4 km/h 17.7 km/h 71% 0 mm 0 W/m2
19:34 19.3 °C 14.4 °C 1016.1 hPa NE 5 km/h 16.1 km/h 71% 0 mm 0 W/m2
19:39 19.2 °C 14.3 °C 1016.1 hPa NE 6.6 km/h 17.7 km/h 71% 0 mm 0 W/m2
19:44 19.1 °C 14.3 °C 1016.1 hPa NE 7.4 km/h 22.5 km/h 71.4% 0 mm 0 W/m2
19:49 19.1 °C 14.3 °C 1016.5 hPa ENE 12.1 km/h 22.5 km/h 72% 0 mm 0 W/m2
19:54 18.9 °C 14.2 °C 1016.5 hPa ENE 8.7 km/h 24.1 km/h 72% 0 mm 0 W/m2
19:59 18.9 °C 14.2 °C 1016.5 hPa ENE 6.6 km/h 14.5 km/h 72% 0 mm 0 W/m2
20:04 18.8 °C 14.1 °C 1016.5 hPa ENE 6 km/h 24.1 km/h 72% 0 mm 0 W/m2
20:09 18.8 °C 14.1 °C 1016.5 hPa NE 10.6 km/h 20.9 km/h 72% 0 mm 0 W/m2
20:14 18.7 °C 14 °C 1016.8 hPa ENE 4.3 km/h 17.7 km/h 72.2% 0 mm 0 W/m2
20:19 18.6 °C 14.1 °C 1016.8 hPa NE 5 km/h 19.3 km/h 73% 0 mm 0 W/m2
20:24 18.5 °C 14 °C 1016.8 hPa ENE 8 km/h 17.7 km/h 73% 0 mm 0 W/m2
20:29 18.4 °C 14 °C 1016.8 hPa ENE 8 km/h 19.3 km/h 73% 0 mm 0 W/m2
20:34 18.4 °C 14 °C 1016.8 hPa NE 9.5 km/h 22.5 km/h 73% 0 mm 0 W/m2
20:39 18.3 °C 13.9 °C 1016.8 hPa NE 6.6 km/h 25.7 km/h 73.2% 0 mm 0 W/m2
20:44 18.3 °C 14.1 °C 1016.8 hPa East 6.6 km/h 19.3 km/h 74% 0 mm 0 W/m2
20:49 18.2 °C 14.1 °C 1016.8 hPa NE 7.2 km/h 19.3 km/h 74% 0 mm 0 W/m2
20:54 18.2 °C 13.9 °C 1016.8 hPa NE 10.9 km/h 19.3 km/h 74% 0 mm 0 W/m2
20:59 18.1 °C 13.9 °C 1016.8 hPa ENE 10.6 km/h 19.3 km/h 74% 0 mm 0 W/m2
21:04 17.9 °C 13.8 °C 1017.2 hPa East 8 km/h 22.5 km/h 74% 0 mm 0 W/m2
21:09 17.9 °C 13.7 °C 1017.2 hPa East 8 km/h 22.5 km/h 74% 0 mm 0 W/m2
21:14 17.8 °C 13.7 °C 1017.2 hPa NE 10.3 km/h 20.9 km/h 74.4% 0 mm 0 W/m2
21:19 17.6 °C 13.6 °C 1017.2 hPa ENE 12.9 km/h 24.1 km/h 75% 0 mm 0 W/m2
21:24 17.4 °C 13.4 °C 1017.2 hPa ENE 12.1 km/h 24.1 km/h 75% 0 mm 0 W/m2
21:29 17.4 °C 13.4 °C 1017.2 hPa ENE 8.9 km/h 22.5 km/h 75% 0 mm 0 W/m2
21:34 17.3 °C 13.3 °C 1017.2 hPa East 8.4 km/h 30.6 km/h 75% 0 mm 0 W/m2
21:39 17.3 °C 13.3 °C 1017.2 hPa East 11.4 km/h 22.5 km/h 75% 0 mm 0 W/m2
21:44 17.2 °C 13.2 °C 1017.5 hPa ENE 10.6 km/h 25.7 km/h 75% 0 mm 0 W/m2
21:49 17.1 °C 13.1 °C 1017.5 hPa NE 8.7 km/h 20.9 km/h 75% 0 mm 0 W/m2
21:54 17 °C 13.2 °C 1017.5 hPa ENE 8.4 km/h 20.9 km/h 76% 0 mm 0 W/m2
21:59 16.9 °C 13 °C 1017.5 hPa NE 7.2 km/h 20.9 km/h 75.6% 0 mm 0 W/m2
22:04 16.8 °C 12.9 °C 1017.5 hPa ENE 9.3 km/h 25.7 km/h 76% 0 mm 0 W/m2
22:09 16.7 °C 12.9 °C 1017.5 hPa NE 7.7 km/h 22.5 km/h 76% 0 mm 0 W/m2
22:14 16.7 °C 12.8 °C 1017.5 hPa NE 11.6 km/h 27.4 km/h 76% 0 mm 0 W/m2
22:19 16.6 °C 12.8 °C 1017.5 hPa NE 3.9 km/h 16.1 km/h 76% 0 mm 0 W/m2
22:24 16.4 °C 12.6 °C 1017.5 hPa NE 6.8 km/h 17.7 km/h 76% 0 mm 0 W/m2
22:29 16.3 °C 12.5 °C 1017.8 hPa ENE 10.6 km/h 20.9 km/h 76% 0 mm 0 W/m2
22:34 16.2 °C 12.4 °C 1017.5 hPa NE 7.1 km/h 17.7 km/h 76% 0 mm 0 W/m2
22:39 16.1 °C 12.5 °C 1017.5 hPa NE 8.5 km/h 19.3 km/h 76.4% 0 mm 0 W/m2
22:44 16 °C 12.4 °C 1017.5 hPa NNE 4.7 km/h 14.5 km/h 76.8% 0 mm 0 W/m2
22:49 15.8 °C 12.4 °C 1017.8 hPa NE 13.2 km/h 17.7 km/h 77.4% 0 mm 0 W/m2
22:54 15.7 °C 12.4 °C 1017.5 hPa NE 11.3 km/h 22.5 km/h 78% 0 mm 0 W/m2
22:59 15.6 °C 12.5 °C 1017.5 hPa NE 9.5 km/h 22.5 km/h 78.8% 0 mm 0 W/m2
23:04 15.6 °C 12.4 °C 1017.5 hPa ENE 7.7 km/h 17.7 km/h 79% 0 mm 0 W/m2
23:09 15.4 °C 12.4 °C 1017.8 hPa ENE 7.1 km/h 17.7 km/h 79.4% 0 mm 0 W/m2
23:14 15.3 °C 12.4 °C 1017.8 hPa NE 7.7 km/h 19.3 km/h 80% 0 mm 0 W/m2
23:19 15.2 °C 12.3 °C 1017.8 hPa ENE 10.8 km/h 17.7 km/h 80% 0 mm 0 W/m2
23:24 15.2 °C 12.3 °C 1017.8 hPa NNE 7.1 km/h 16.1 km/h 80.6% 0 mm 0 W/m2
23:28 15.1 °C 12.4 °C 1017.8 hPa ENE 7.6 km/h 14.5 km/h 81% 0 mm 0 W/m2
23:34 15.1 °C 12.3 °C 1017.8 hPa NNE 7.1 km/h 17.7 km/h 81% 0 mm 0 W/m2
23:39 14.9 °C 12.2 °C 1017.8 hPa NE 5.3 km/h 16.1 km/h 81% 0 mm 0 W/m2
23:44 14.9 °C 12.2 °C 1017.8 hPa NE 3.7 km/h 14.5 km/h 81.6% 0 mm 0 W/m2
23:49 14.8 °C 12.2 °C 1018.2 hPa East 5 km/h 16.1 km/h 82% 0 mm 0 W/m2
23:54 14.8 °C 12.2 °C 1018.2 hPa ENE 6.6 km/h 16.1 km/h 82% 0 mm 0 W/m2
23:59 14.7 °C 12.1 °C 1018.2 hPa NE 8.2 km/h 16.1 km/h 82% 0 mm 0 W/m2
Bath Spa Weather
Compliments of Weather Underground - 2 mb